Terminal Aerodrome Forecast
Issued by NWS

Home | Current Version | Previous Version | Text Only | Print | Product List | Glossary On
Versions: 1 2 3 4 5 6 7 8 9 10 11 12 13
278
FTUS43 KSGF 301120
TAFJLN
TAF
KJLN 301120Z 3012/0112 34005KT P6SM SKC
     FM301700 35008KT P6SM SCT050
     FM010000 36005KT P6SM SKC=

USA.gov is the U.S. government's official web portal to all federal, state and local government web resources and services.